Lucas, Mississippi
Current Conditions -  °F | °C
As of 12:15 AM on Monday 26 Jan 2015 (Local Time) from K1R7 Reporting Station
Clear Clear  
Wind Chill: 52°   Ceiling: Unl
Heat Index: 52°   Visibility: NA
Dew Point: 36°   Wind: 10mph
Humidity: 54%   Direction: 300°WNW
Pressure: 29.98"   Gusts: 18mph
Location:  31.5969°N, 89.8752°W
Report Text: K1R7 260615Z AUTO 30009G16KT CLR 11/02 A2998 RMK AO2
Loading
Personal Weather Stations






























Interactive Weather Map New forecast layout! Learn more

10-Day Weather Forecast

Advertisements
Track Severe Weather on mobile